LUKK/KIV METAR and TAF weather

Enter ICAO airport designator
Station Type Date Time Source
LUKK METAR 2020/11/27 14:30 UTC NOAA

LUKK 271430Z VRB02KT 2400 BR OVC002 00/00 Q1020 R08/CLRD// NOSIG


Station Type Date Time Source
LUKK Decoded METAR 2020/11/27 14:30 UTC NOAA

Chisinau International Airport, Moldova (LUKK) 46-55-40N 028-55-51E
Nov 27, 2020 - 09:30 AM EST / 2020.11.27 1430 UTC
Wind: Variable at 2 MPH (2 KT):0
Visibility: 1 mile(s):0
Sky conditions: overcast
Weather: mist
Temperature: 32 F (0 C)
Dew Point: 32 F (0 C)
Relative Humidity: 100%
Pressure (altimeter): 30.12 in. Hg (1020 hPa)
ob: LUKK 271430Z VRB02KT 2400 BR OVC002 00/00 Q1020 R08/CLRD// NOSIG
cycle: 14

Station Type Date Time Source
LUKK TAF 2020/11/27 12:30 UTC NOAA

TAF TAF LUKK 271127Z 2712/2812 VRB05KT 2400 BR OVC004
TEMPO 2712/2716 1200 OVC002
BECMG 2716/2718 0400 FZFG VV001
TEMPO 2718/2806 0800
BECMG 2807/2809 2800 BR OVC005
BECMG 2809/2811 5000 BKN008 BKN025

Example: see airport list